createdAt,value
2023-02-01T00:01:28.757Z,7.37
2023-02-01T00:03:56.385Z,7.10
2023-02-01T00:06:23.954Z,7.67
2023-02-01T00:08:54.141Z,6.97
2023-02-01T00:11:22.017Z,7.27
2023-02-01T00:13:49.769Z,7.13
2023-02-01T00:16:24.796Z,7.00
2023-02-01T00:18:53.048Z,8.10
2023-02-01T00:21:21.670Z,7.50
2023-02-01T00:23:49.512Z,7.10
2023-02-01T00:26:21.497Z,7.80
2023-02-01T00:28:49.120Z,7.57
2023-02-01T00:31:16.709Z,8.47
2023-02-01T00:33:44.480Z,8.27
2023-02-01T00:36:12.132Z,8.13
2023-02-01T00:38:39.965Z,8.60
2023-02-01T00:41:14.754Z,9.10
2023-02-01T00:43:42.702Z,7.77
2023-02-01T00:46:10.622Z,8.27
2023-02-01T00:48:38.290Z,7.50
2023-02-01T00:51:15.621Z,7.93
2023-02-01T00:53:43.307Z,6.63
2023-02-01T00:56:11.191Z,6.97
2023-02-01T00:58:38.831Z,6.90
2023-02-01T01:01:09.143Z,6.43
2023-02-01T01:03:38.099Z,6.40
2023-02-01T01:06:07.162Z,6.30
2023-02-01T01:08:35.085Z,6.40
2023-02-01T01:11:06.627Z,6.43
2023-02-01T01:13:34.775Z,6.63
2023-02-01T01:16:03.374Z,6.23
2023-02-01T01:18:31.969Z,5.53
2023-02-01T01:20:59.782Z,6.93
2023-02-01T01:23:27.867Z,5.37
2023-02-01T01:25:55.580Z,5.30
2023-02-01T01:28:23.298Z,5.60
2023-02-01T01:30:50.789Z,4.60
2023-02-01T01:33:18.366Z,4.90
2023-02-01T01:35:45.938Z,5.00
2023-02-01T01:38:13.527Z,5.00
2023-02-01T01:40:41.036Z,4.40
2023-02-01T01:43:14.492Z,4.30
2023-02-01T01:45:42.046Z,3.80
2023-02-01T01:48:09.524Z,4.37
2023-02-01T01:50:39.761Z,3.83
2023-02-01T01:53:09.457Z,4.50
2023-02-01T01:55:39.189Z,4.10
2023-02-01T01:58:08.636Z,4.53
2023-02-01T02:00:36.629Z,3.57
2023-02-01T02:03:17.070Z,4.43
2023-02-01T02:05:44.974Z,4.27
2023-02-01T02:08:13.193Z,4.13
2023-02-01T02:10:40.869Z,5.30
2023-02-01T02:13:08.672Z,3.97
2023-02-01T02:15:37.419Z,4.27
2023-02-01T02:18:10.477Z,4.77
2023-02-01T02:20:56.894Z,3.77
2023-02-01T02:23:53.936Z,3.93
2023-02-01T02:26:36.905Z,4.67
2023-02-01T02:29:19.890Z,3.80
2023-02-01T02:32:04.942Z,3.80
2023-02-01T02:34:44.497Z,3.97
2023-02-01T02:37:24.117Z,4.13
2023-02-01T02:40:00.618Z,3.70
2023-02-01T02:42:43.839Z,4.27
2023-02-01T02:45:18.981Z,4.67
2023-02-01T02:47:46.438Z,4.83
2023-02-01T02:50:40.330Z,4.47
2023-02-01T02:53:11.955Z,4.03
2023-02-01T02:55:40.049Z,4.17
2023-02-01T02:58:09.047Z,4.20
2023-02-01T03:00:37.306Z,4.67
2023-02-01T03:03:04.851Z,3.80
2023-02-01T03:05:36.353Z,4.87
2023-02-01T03:08:12.393Z,4.13
2023-02-01T03:10:43.534Z,4.57
2023-02-01T03:13:21.443Z,4.33
2023-02-01T03:15:51.741Z,4.97
2023-02-01T03:18:40.535Z,4.57
2023-02-01T03:21:09.888Z,5.03
2023-02-01T03:23:38.174Z,4.27
2023-02-01T03:26:06.557Z,4.73
2023-02-01T03:28:35.204Z,4.20
2023-02-01T03:31:03.696Z,5.13
2023-02-01T03:33:31.958Z,3.90
2023-02-01T03:36:08.566Z,5.07
2023-02-01T03:38:40.176Z,5.27
2023-02-01T03:41:12.857Z,4.67
2023-02-01T03:44:00.695Z,4.93
2023-02-01T03:46:33.069Z,3.73
2023-02-01T03:49:05.076Z,5.27
2023-02-01T03:51:33.367Z,5.70
2023-02-01T03:54:03.596Z,4.20
2023-02-01T03:56:31.504Z,3.70
2023-02-01T03:58:59.112Z,3.47
2023-02-01T04:01:30.511Z,5.03
2023-02-01T04:03:58.682Z,4.20
2023-02-01T04:06:26.754Z,4.90
2023-02-01T04:08:54.422Z,3.90
2023-02-01T04:11:21.985Z,4.07
2023-02-01T04:13:49.491Z,4.60
2023-02-01T04:16:17.036Z,4.77
2023-02-01T04:18:44.604Z,4.43
2023-02-01T04:21:12.130Z,4.67
2023-02-01T04:23:39.692Z,3.87
2023-02-01T04:26:07.207Z,4.50
2023-02-01T04:28:34.781Z,4.43
2023-02-01T04:31:02.394Z,4.30
2023-02-01T04:33:29.941Z,4.33
2023-02-01T04:35:57.452Z,4.03
2023-02-01T04:38:25.000Z,3.80
2023-02-01T04:40:52.502Z,5.43
2023-02-01T04:43:20.006Z,5.13
2023-02-01T04:45:51.136Z,4.17
2023-02-01T04:48:19.607Z,4.20
2023-02-01T04:50:47.664Z,4.00
2023-02-01T04:53:18.363Z,4.20
2023-02-01T04:55:45.963Z,4.50
2023-02-01T04:58:13.483Z,4.23
2023-02-01T05:00:40.999Z,4.60
2023-02-01T05:03:08.802Z,3.73
2023-02-01T05:05:36.302Z,4.03
2023-02-01T05:08:03.903Z,4.43
2023-02-01T05:10:31.501Z,3.37
2023-02-01T05:12:59.002Z,4.60
2023-02-01T05:15:26.594Z,3.47
2023-02-01T05:17:54.054Z,3.57
2023-02-01T05:20:21.983Z,5.10
2023-02-01T05:22:49.611Z,4.80
2023-02-01T05:25:17.172Z,4.17
2023-02-01T05:27:44.826Z,3.87
2023-02-01T05:30:12.917Z,3.17
2023-02-01T05:32:40.382Z,3.77
2023-02-01T05:35:08.144Z,4.10
2023-02-01T05:37:35.675Z,4.50
2023-02-01T05:40:03.234Z,5.00
2023-02-01T05:42:30.720Z,3.87
2023-02-01T05:44:58.254Z,4.10
2023-02-01T05:47:25.806Z,3.83
2023-02-01T05:49:53.294Z,4.80
2023-02-01T05:52:20.828Z,3.60
2023-02-01T05:54:49.317Z,4.40
2023-02-01T05:57:16.814Z,3.97
2023-02-01T05:59:44.349Z,4.67
2023-02-01T06:02:12.665Z,4.17
2023-02-01T06:04:40.475Z,3.73
2023-02-01T06:07:08.686Z,4.80
2023-02-01T06:09:36.605Z,3.80
2023-02-01T06:12:04.647Z,4.43
2023-02-01T06:14:32.184Z,3.83
2023-02-01T06:16:59.774Z,3.73
2023-02-01T06:19:27.323Z,4.43
2023-02-01T06:21:54.748Z,4.17
2023-02-01T06:24:22.295Z,3.93
2023-02-01T06:26:49.792Z,4.77
2023-02-01T06:29:17.306Z,4.87
2023-02-01T06:31:44.978Z,4.23
2023-02-01T06:34:12.582Z,4.70
2023-02-01T06:36:40.045Z,5.37
2023-02-01T06:39:07.529Z,4.83
2023-02-01T06:41:35.082Z,4.77
2023-02-01T06:44:02.660Z,3.50
2023-02-01T06:46:30.252Z,4.90
2023-02-01T06:48:57.855Z,4.27
2023-02-01T06:51:29.096Z,3.47
2023-02-01T06:53:57.087Z,3.93
2023-02-01T06:56:24.602Z,5.03
2023-02-01T06:58:52.103Z,4.43
2023-02-01T07:01:19.840Z,4.73
2023-02-01T07:03:51.363Z,4.00
2023-02-01T07:06:19.422Z,4.43
2023-02-01T07:08:46.906Z,3.97
2023-02-01T07:11:15.375Z,5.40
2023-02-01T07:13:42.998Z,4.73
2023-02-01T07:16:20.740Z,3.77
2023-02-01T07:18:48.771Z,5.23
2023-02-01T07:21:16.287Z,4.83
2023-02-01T07:23:43.860Z,4.57
2023-02-01T07:26:12.360Z,4.93
2023-02-01T07:28:40.184Z,3.63
2023-02-01T07:31:11.675Z,4.80
2023-02-01T07:33:39.265Z,3.93
2023-02-01T07:36:07.698Z,4.73
2023-02-01T07:38:35.280Z,5.27
2023-02-01T07:41:04.315Z,4.47
2023-02-01T07:43:32.631Z,6.00
2023-02-01T07:46:00.532Z,5.03
2023-02-01T07:48:28.307Z,4.57
2023-02-01T07:51:04.068Z,4.90
2023-02-01T07:53:32.196Z,4.97
2023-02-01T07:55:59.813Z,4.17
2023-02-01T07:58:27.786Z,5.00
2023-02-01T08:00:55.405Z,4.40
2023-02-01T08:03:23.027Z,4.40
2023-02-01T08:05:55.113Z,4.37
2023-02-01T08:08:22.842Z,4.90
2023-02-01T08:10:50.640Z,5.63
2023-02-01T08:13:18.161Z,4.20
2023-02-01T08:15:45.621Z,4.23
2023-02-01T08:18:13.118Z,3.87
2023-02-01T08:20:40.626Z,4.43
2023-02-01T08:23:09.383Z,4.50
2023-02-01T08:25:36.916Z,4.43
2023-02-01T08:28:04.545Z,4.20
2023-02-01T08:30:32.020Z,5.00
2023-02-01T08:32:59.733Z,3.73
2023-02-01T08:35:41.495Z,4.97
2023-02-01T08:38:10.590Z,4.13
2023-02-01T08:40:38.146Z,4.07
2023-02-01T08:43:05.739Z,4.20
2023-02-01T08:45:33.254Z,3.63
2023-02-01T08:48:01.856Z,3.90
2023-02-01T08:50:29.364Z,4.47
2023-02-01T08:52:56.843Z,4.40
2023-02-01T08:55:24.317Z,4.30
2023-02-01T08:57:51.831Z,5.00
2023-02-01T09:00:19.632Z,5.07
2023-02-01T09:02:47.138Z,4.43
2023-02-01T09:05:14.840Z,4.43
2023-02-01T09:07:42.338Z,4.00
2023-02-01T09:10:10.253Z,4.53
2023-02-01T09:12:37.775Z,3.67
2023-02-01T09:15:05.771Z,4.60
2023-02-01T09:17:33.332Z,4.67
2023-02-01T09:20:00.778Z,4.70
2023-02-01T09:22:28.265Z,3.80
2023-02-01T09:24:55.919Z,3.67
2023-02-01T09:27:23.730Z,4.20
2023-02-01T09:29:51.231Z,4.03
2023-02-01T09:32:18.926Z,4.50
2023-02-01T09:34:46.592Z,5.03
2023-02-01T09:37:14.123Z,4.57
2023-02-01T09:39:41.908Z,4.50
2023-02-01T09:42:09.472Z,4.97
2023-02-01T09:44:44.250Z,3.97
2023-02-01T09:47:13.527Z,4.30
2023-02-01T09:49:46.271Z,4.40
2023-02-01T09:52:14.691Z,5.03
2023-02-01T09:54:44.200Z,3.67
2023-02-01T09:57:16.372Z,4.30
2023-02-01T09:59:53.727Z,4.77
2023-02-01T10:02:30.740Z,5.07
2023-02-01T10:05:01.093Z,3.63
2023-02-01T10:07:31.498Z,4.93
2023-02-01T10:10:12.996Z,4.27
2023-02-01T10:12:46.710Z,5.03
2023-02-01T10:15:17.380Z,4.30
2023-02-01T10:17:50.978Z,4.80
2023-02-01T10:20:25.072Z,3.97
2023-02-01T10:23:15.940Z,3.80
2023-02-01T10:25:54.956Z,4.40
2023-02-01T10:28:23.698Z,4.90
2023-02-01T10:30:54.494Z,3.90
2023-02-01T10:33:32.076Z,3.40
2023-02-01T10:36:19.801Z,4.37
2023-02-01T10:38:47.726Z,4.40
2023-02-01T10:41:17.524Z,4.17
2023-02-01T10:43:46.210Z,4.10
2023-02-01T10:46:13.756Z,4.63
2023-02-01T10:48:41.632Z,4.37
2023-02-01T10:51:14.043Z,3.80
2023-02-01T10:53:51.567Z,3.70
2023-02-01T10:56:23.391Z,4.57
2023-02-01T10:58:50.907Z,4.53
2023-02-01T11:01:22.836Z,4.57
2023-02-01T11:03:53.107Z,3.30
2023-02-01T11:06:23.760Z,4.07
2023-02-01T11:08:58.687Z,3.93
2023-02-01T11:11:26.698Z,4.13
2023-02-01T11:13:59.389Z,4.03
2023-02-01T11:16:49.711Z,3.07
2023-02-01T11:19:18.223Z,4.10
2023-02-01T11:21:46.052Z,4.30
2023-02-01T11:24:33.780Z,3.50
2023-02-01T11:27:04.153Z,4.27
2023-02-01T11:29:52.992Z,3.87
2023-02-01T11:32:21.770Z,3.80
2023-02-01T11:35:04.311Z,4.17
2023-02-01T11:37:33.898Z,3.80
2023-02-01T11:40:03.040Z,4.17
2023-02-01T11:42:31.052Z,4.67
2023-02-01T11:45:17.293Z,5.33
2023-02-01T11:47:44.885Z,5.17
2023-02-01T11:50:21.186Z,4.50
2023-02-01T11:53:24.491Z,4.93
2023-02-01T11:56:04.149Z,3.73
2023-02-01T11:58:37.464Z,4.63
2023-02-01T12:01:12.832Z,4.03
2023-02-01T12:03:55.435Z,4.40
2023-02-01T12:06:32.308Z,4.23
2023-02-01T12:09:12.420Z,4.43
2023-02-01T12:11:55.627Z,4.17
2023-02-01T12:14:26.196Z,4.30
2023-02-01T12:16:53.658Z,3.60
2023-02-01T12:19:39.683Z,3.87
2023-02-01T12:22:13.378Z,4.70
2023-02-01T12:24:59.847Z,4.97
2023-02-01T12:27:27.440Z,3.97
2023-02-01T12:29:57.737Z,4.37
2023-02-01T12:32:37.716Z,4.07
2023-02-01T12:35:12.372Z,4.70
2023-02-01T12:37:39.991Z,4.37
2023-02-01T12:40:16.395Z,4.00
2023-02-01T12:42:47.693Z,4.00
2023-02-01T12:45:34.371Z,3.53
2023-02-01T12:48:20.724Z,4.00
2023-02-01T12:50:53.420Z,4.03
2023-02-01T12:53:24.169Z,4.00
2023-02-01T12:55:54.106Z,3.50
2023-02-01T12:58:27.668Z,3.50
2023-02-01T13:01:02.626Z,3.40
2023-02-01T13:03:48.883Z,3.30
2023-02-01T13:06:19.484Z,3.47
2023-02-01T13:08:59.563Z,3.03
2023-02-01T13:11:32.478Z,2.87
2023-02-01T13:14:18.930Z,3.03
2023-02-01T13:16:49.314Z,2.37
2023-02-01T13:19:24.414Z,2.87
2023-02-01T13:21:55.103Z,3.17
2023-02-01T13:24:42.919Z,3.90
2023-02-01T13:27:17.597Z,3.23
2023-02-01T13:30:03.886Z,2.60
2023-02-01T13:33:18.161Z,2.60
2023-02-01T13:35:18.893Z,2.70
2023-02-01T13:37:49.494Z,2.67
2023-02-01T13:40:35.574Z,3.00
2023-02-01T13:43:23.342Z,2.57
2023-02-01T13:45:55.088Z,3.20
2023-02-01T13:48:31.222Z,2.40
2023-02-01T13:51:00.279Z,3.33
2023-02-01T13:53:32.184Z,2.67
2023-02-01T13:56:03.983Z,2.73
2023-02-01T13:58:31.539Z,2.50
2023-02-01T14:01:22.213Z,3.20
2023-02-01T14:03:51.463Z,3.10
2023-02-01T14:06:21.871Z,2.10
2023-02-01T14:09:09.395Z,2.70
2023-02-01T14:11:45.416Z,2.63
2023-02-01T14:14:18.855Z,3.20
2023-02-01T14:17:06.394Z,3.07
2023-02-01T14:19:34.875Z,3.33
2023-02-01T14:22:22.319Z,2.73
2023-02-01T14:24:53.974Z,3.50
2023-02-01T14:27:26.095Z,3.83
2023-02-01T14:29:55.695Z,2.50
2023-02-01T14:32:24.115Z,3.00
2023-02-01T14:34:53.649Z,3.03
2023-02-01T14:37:21.212Z,2.70
2023-02-01T14:39:48.729Z,3.43
2023-02-01T14:42:28.552Z,2.90
2023-02-01T14:45:16.340Z,2.95
2023-02-01T14:47:43.900Z,3.07
2023-02-01T14:50:11.395Z,2.97
2023-02-01T14:52:45.533Z,3.27
2023-02-01T14:55:16.505Z,3.10
2023-02-01T14:57:45.130Z,4.20
2023-02-01T15:00:18.717Z,3.23
2023-02-01T15:02:47.629Z,2.93
2023-02-01T15:05:24.872Z,3.43
2023-02-01T15:07:53.457Z,3.40
2023-02-01T15:10:22.350Z,3.73
2023-02-01T15:12:49.958Z,3.17
2023-02-01T15:15:20.363Z,3.53
2023-02-01T15:17:58.618Z,3.00
2023-02-01T15:20:28.362Z,3.23
2023-02-01T15:22:57.752Z,3.40
2023-02-01T15:25:27.064Z,3.60
2023-02-01T15:27:55.039Z,3.03
2023-02-01T15:30:27.655Z,3.13
2023-02-01T15:33:17.500Z,3.50
2023-02-01T15:35:45.074Z,3.57
2023-02-01T15:38:21.671Z,3.33
2023-02-01T15:41:00.473Z,3.40
2023-02-01T15:43:28.864Z,3.73
2023-02-01T15:46:00.336Z,4.43
2023-02-01T15:48:28.874Z,3.30
2023-02-01T15:50:56.617Z,4.17
2023-02-01T15:53:25.957Z,3.00
2023-02-01T15:55:54.924Z,3.00
2023-02-01T15:58:23.203Z,4.17
2023-02-01T16:00:54.140Z,3.73
2023-02-01T16:03:29.701Z,3.13
2023-02-01T16:06:01.708Z,3.57
2023-02-01T16:08:30.705Z,3.60
2023-02-01T16:11:02.841Z,4.30
2023-02-01T16:13:30.420Z,3.30
2023-02-01T16:15:57.967Z,4.30
2023-02-01T16:18:25.475Z,3.13
2023-02-01T16:20:53.023Z,3.50
2023-02-01T16:23:20.612Z,3.63
2023-02-01T16:25:48.337Z,3.63
2023-02-01T16:28:15.878Z,4.17
2023-02-01T16:30:43.482Z,3.77
2023-02-01T16:33:13.707Z,3.60
2023-02-01T16:35:41.222Z,3.20
2023-02-01T16:38:13.146Z,3.40
2023-02-01T16:40:44.534Z,3.70
2023-02-01T16:43:30.007Z,3.17
2023-02-01T16:46:00.657Z,2.90
2023-02-01T16:48:32.851Z,3.97
2023-02-01T16:51:02.113Z,3.17
2023-02-01T16:53:32.913Z,3.60
2023-02-01T16:56:02.344Z,3.63
2023-02-01T16:58:29.855Z,3.70
2023-02-01T17:00:57.709Z,3.00
2023-02-01T17:03:25.288Z,3.40
2023-02-01T17:05:54.597Z,3.00
2023-02-01T17:08:28.003Z,3.43
2023-02-01T17:10:55.522Z,3.53
2023-02-01T17:13:23.170Z,3.50
2023-02-01T17:16:01.463Z,3.83
2023-02-01T17:18:30.072Z,3.63
2023-02-01T17:20:58.269Z,3.03
2023-02-01T17:23:26.448Z,3.10
2023-02-01T17:25:54.015Z,3.77
2023-02-01T17:28:21.651Z,3.47
2023-02-01T17:30:49.296Z,2.87
2023-02-01T17:33:36.111Z,3.80
2023-02-01T17:36:05.155Z,3.43
2023-02-01T17:38:32.654Z,2.83
2023-02-01T17:41:00.246Z,2.87
2023-02-01T17:43:27.795Z,3.03
2023-02-01T17:45:55.362Z,3.80
2023-02-01T17:48:23.646Z,2.60
2023-02-01T17:50:52.036Z,3.60
2023-02-01T17:53:19.557Z,3.40
2023-02-01T17:55:47.515Z,3.17
2023-02-01T17:58:15.866Z,3.00
2023-02-01T18:00:44.413Z,3.43
2023-02-01T18:03:19.810Z,3.33
2023-02-01T18:05:47.411Z,3.47
2023-02-01T18:08:14.860Z,3.50
2023-02-01T18:10:42.370Z,3.47
2023-02-01T18:13:10.889Z,3.70
2023-02-01T18:15:38.692Z,3.57
2023-02-01T18:18:06.569Z,4.03
2023-02-01T18:20:34.330Z,3.80
2023-02-01T18:23:01.831Z,4.43
2023-02-01T18:25:30.434Z,4.37
2023-02-01T18:27:58.071Z,4.73
2023-02-01T18:30:29.186Z,4.03
2023-02-01T18:32:57.233Z,5.13
2023-02-01T18:35:27.073Z,5.00
2023-02-01T18:37:54.940Z,4.30
2023-02-01T18:40:24.619Z,4.23
2023-02-01T18:42:52.184Z,6.67
2023-02-01T18:45:22.370Z,6.00
2023-02-01T18:47:50.635Z,6.03
2023-02-01T18:50:18.697Z,5.13
2023-02-01T18:52:46.853Z,4.63
2023-02-01T18:55:15.011Z,5.20
2023-02-01T18:57:42.608Z,4.97
2023-02-01T19:00:10.776Z,5.57
2023-02-01T19:02:38.729Z,6.10
2023-02-01T19:05:07.350Z,5.63
2023-02-01T19:07:35.505Z,3.87
2023-02-01T19:10:03.320Z,6.43
2023-02-01T19:12:31.999Z,4.17
2023-02-01T19:14:59.554Z,4.57
2023-02-01T19:17:28.413Z,5.17
2023-02-01T19:19:59.278Z,5.70
2023-02-01T19:22:27.503Z,6.30
2023-02-01T19:24:55.155Z,4.67
2023-02-01T19:27:22.830Z,5.27
2023-02-01T19:29:50.295Z,4.20
2023-02-01T19:32:17.807Z,5.67
2023-02-01T19:34:45.348Z,4.90
2023-02-01T19:37:12.864Z,4.90
2023-02-01T19:39:40.383Z,4.53
2023-02-01T19:42:10.555Z,4.50
2023-02-01T19:44:38.168Z,3.70
2023-02-01T19:47:05.676Z,4.20
2023-02-01T19:49:33.293Z,5.70
2023-02-01T19:52:00.781Z,4.03
2023-02-01T19:54:28.543Z,3.93
2023-02-01T19:56:56.033Z,4.07
2023-02-01T19:59:23.975Z,3.73
2023-02-01T20:01:50.777Z,4.30
2023-02-01T20:04:18.677Z,4.20
2023-02-01T20:06:46.974Z,4.70
2023-02-01T20:09:14.618Z,4.90
2023-02-01T20:11:42.187Z,3.43
2023-02-01T20:14:10.024Z,4.23
2023-02-01T20:16:37.585Z,3.43
2023-02-01T20:19:05.223Z,3.80
2023-02-01T20:21:33.469Z,3.63
2023-02-01T20:24:01.074Z,3.03
2023-02-01T20:26:29.506Z,3.07
2023-02-01T20:28:57.121Z,3.30
2023-02-01T20:31:24.625Z,5.10
2023-02-01T20:33:52.738Z,4.20
2023-02-01T20:36:20.219Z,3.67
2023-02-01T20:38:47.786Z,3.63
2023-02-01T20:41:15.396Z,4.37
2023-02-01T20:43:42.989Z,3.27
2023-02-01T20:46:10.544Z,4.10
2023-02-01T20:48:38.200Z,4.07
2023-02-01T20:51:05.760Z,4.03
2023-02-01T20:53:33.395Z,3.33
2023-02-01T20:56:00.905Z,3.67
2023-02-01T20:58:28.580Z,3.20
2023-02-01T21:00:56.116Z,3.50
2023-02-01T21:03:23.999Z,3.47
2023-02-01T21:05:52.738Z,2.93
2023-02-01T21:08:20.640Z,4.93
2023-02-01T21:11:01.644Z,3.77
2023-02-01T21:13:30.129Z,3.63
2023-02-01T21:15:58.117Z,3.53
2023-02-01T21:18:25.745Z,3.83
2023-02-01T21:20:53.243Z,3.20
2023-02-01T21:23:21.901Z,4.80
2023-02-01T21:25:49.376Z,3.30
2023-02-01T21:28:16.867Z,3.90
2023-02-01T21:30:44.473Z,3.47
2023-02-01T21:33:11.958Z,3.67
2023-02-01T21:35:40.899Z,3.20
2023-02-01T21:38:08.394Z,3.87
2023-02-01T21:40:36.356Z,3.30
2023-02-01T21:43:03.801Z,2.93
2023-02-01T21:45:31.385Z,3.53
2023-02-01T21:47:58.927Z,3.20
2023-02-01T21:50:26.503Z,3.47
2023-02-01T21:52:54.016Z,4.70
2023-02-01T21:55:21.759Z,3.57
2023-02-01T21:57:49.371Z,3.50
2023-02-01T22:00:17.058Z,3.87
2023-02-01T22:02:44.539Z,3.73
2023-02-01T22:05:12.121Z,3.60
2023-02-01T22:07:39.613Z,3.90
2023-02-01T22:10:07.305Z,4.17
2023-02-01T22:12:34.791Z,3.60
2023-02-01T22:15:02.291Z,3.97
2023-02-01T22:17:29.756Z,3.80
2023-02-01T22:19:57.251Z,3.50
2023-02-01T22:22:24.793Z,3.40
2023-02-01T22:24:52.405Z,3.60
2023-02-01T22:27:19.886Z,3.90
2023-02-01T22:29:48.715Z,3.93
2023-02-01T22:32:16.207Z,3.60
2023-02-01T22:34:43.782Z,4.23
2023-02-01T22:37:12.289Z,4.00
2023-02-01T22:39:40.089Z,4.17
2023-02-01T22:42:07.648Z,3.77
2023-02-01T22:44:35.146Z,3.90
2023-02-01T22:47:02.638Z,3.17
2023-02-01T22:49:30.155Z,3.43
2023-02-01T22:51:57.585Z,4.30
2023-02-01T22:54:25.203Z,4.07
2023-02-01T22:56:52.647Z,3.63
2023-02-01T22:59:20.266Z,4.07
2023-02-01T23:01:47.752Z,3.47
2023-02-01T23:04:15.784Z,4.63
2023-02-01T23:06:43.475Z,3.97
2023-02-01T23:09:15.692Z,3.77
2023-02-01T23:11:43.638Z,4.10
2023-02-01T23:14:11.790Z,3.93
2023-02-01T23:16:39.750Z,3.63
2023-02-01T23:19:07.706Z,4.67
2023-02-01T23:21:35.500Z,3.93
2023-02-01T23:24:03.483Z,3.57
2023-02-01T23:26:32.403Z,3.10
2023-02-01T23:29:00.269Z,3.50
2023-02-01T23:31:29.533Z,3.23
2023-02-01T23:33:57.535Z,3.60
2023-02-01T23:36:25.955Z,3.30
2023-02-01T23:38:53.899Z,3.50
2023-02-01T23:41:22.186Z,3.93
2023-02-01T23:43:49.680Z,3.53
2023-02-01T23:46:17.776Z,3.70
2023-02-01T23:48:46.100Z,4.00
2023-02-01T23:51:13.970Z,4.10
2023-02-01T23:53:41.661Z,4.23
2023-02-01T23:56:09.199Z,3.50
2023-02-01T23:58:36.657Z,3.87
